createdAt,value
2024-01-22T00:01:46.973Z,100755.34
2024-01-22T00:04:19.810Z,100742.38
2024-01-22T00:06:47.019Z,100728.56
2024-01-22T00:09:14.259Z,100746.63
2024-01-22T00:11:41.556Z,100749.19
2024-01-22T00:14:08.677Z,100746.56
2024-01-22T00:16:41.130Z,100759.44
2024-01-22T00:19:08.770Z,100754.31
2024-01-22T00:21:36.112Z,100733.56
2024-01-22T00:24:03.614Z,100724.00
2024-01-22T00:26:31.058Z,100717.09
2024-01-22T00:28:58.215Z,100712.72
2024-01-22T00:31:26.256Z,100714.44
2024-01-22T00:33:53.823Z,100699.75
2024-01-22T00:36:21.178Z,100695.47
2024-01-22T00:38:48.320Z,100692.00
2024-01-22T00:41:15.508Z,100675.53
2024-01-22T00:43:42.654Z,100687.53
2024-01-22T00:46:09.811Z,100685.81
2024-01-22T00:48:37.600Z,100657.31
2024-01-22T00:51:05.356Z,100684.81
2024-01-22T00:53:32.797Z,100664.97
2024-01-22T00:55:59.920Z,100644.28
2024-01-22T00:58:27.195Z,100670.16
2024-01-22T01:00:55.678Z,100661.47
2024-01-22T01:03:23.385Z,100674.34
2024-01-22T01:05:53.559Z,100664.78
2024-01-22T01:08:24.138Z,100645.75
2024-01-22T01:10:51.468Z,100693.19
2024-01-22T01:13:20.313Z,100690.59
2024-01-22T01:15:47.472Z,100696.59
2024-01-22T01:18:15.167Z,100680.97
2024-01-22T01:20:42.497Z,100687.91
2024-01-22T01:23:09.650Z,100676.63
2024-01-22T01:25:38.506Z,100701.63
2024-01-22T01:28:06.225Z,100683.53
2024-01-22T01:30:33.570Z,100685.28
2024-01-22T01:33:01.152Z,100666.34
2024-01-22T01:35:28.437Z,100668.09
2024-01-22T01:37:55.552Z,100652.56
2024-01-22T01:40:22.710Z,100647.34
2024-01-22T01:42:49.895Z,100641.31
2024-01-22T01:45:17.303Z,100648.09
2024-01-22T01:47:49.099Z,100632.56
2024-01-22T01:50:17.960Z,100636.03
2024-01-22T01:52:46.296Z,100625.72
2024-01-22T01:55:14.050Z,100608.41
2024-01-22T01:57:43.924Z,100608.41
2024-01-22T02:00:16.590Z,100604.00
2024-01-22T02:02:44.115Z,100582.31
2024-01-22T02:05:11.379Z,100591.78
2024-01-22T02:07:38.479Z,100579.72
2024-01-22T02:10:06.293Z,100572.69
2024-01-22T02:12:33.403Z,100557.06
2024-01-22T02:15:00.577Z,100545.81
2024-01-22T02:17:27.848Z,100530.22
2024-01-22T02:19:55.028Z,100519.78
2024-01-22T02:22:22.192Z,100525.81
2024-01-22T02:24:49.407Z,100506.75
2024-01-22T02:27:17.018Z,100503.19
2024-01-22T02:29:44.468Z,100495.31
2024-01-22T02:32:11.722Z,100491.88
2024-01-22T02:34:39.186Z,100486.75
2024-01-22T02:37:07.065Z,100504.91
2024-01-22T02:39:34.370Z,100479.81
2024-01-22T02:42:01.692Z,100482.41
2024-01-22T02:44:28.841Z,100460.00
2024-01-22T02:46:56.261Z,100453.97
2024-01-22T02:49:23.660Z,100445.34
2024-01-22T02:51:50.900Z,100440.94
2024-01-22T02:54:18.486Z,100440.94
2024-01-22T02:56:45.819Z,100438.28
2024-01-22T02:59:13.342Z,100412.34
2024-01-22T03:01:40.565Z,100416.59
2024-01-22T03:04:07.985Z,100421.75
2024-01-22T03:06:35.398Z,100395.91
2024-01-22T03:09:02.714Z,100378.50
2024-01-22T03:11:29.900Z,100395.75
2024-01-22T03:13:57.375Z,100400.75
2024-01-22T03:16:24.492Z,100397.22
2024-01-22T03:18:51.972Z,100395.41
2024-01-22T03:21:19.335Z,100399.69
2024-01-22T03:23:46.960Z,100380.63
2024-01-22T03:26:23.434Z,100387.50
2024-01-22T03:28:51.615Z,100381.38
2024-01-22T03:31:23.266Z,100373.47
2024-01-22T03:33:51.543Z,100363.81
2024-01-22T03:36:18.776Z,100374.88
2024-01-22T03:38:46.207Z,100363.63
2024-01-22T03:41:14.065Z,100367.09
2024-01-22T03:43:45.120Z,100368.94
2024-01-22T03:46:13.922Z,100366.47
2024-01-22T03:48:42.010Z,100378.59
2024-01-22T03:51:09.360Z,100373.50
2024-01-22T03:53:36.652Z,100358.78
2024-01-22T03:56:07.893Z,100365.66
2024-01-22T03:58:35.633Z,100356.94
2024-01-22T04:01:04.050Z,100361.28
2024-01-22T04:03:34.027Z,100333.56
2024-01-22T04:06:01.562Z,100362.78
2024-01-22T04:08:28.767Z,100350.59
2024-01-22T04:10:55.934Z,100337.56
2024-01-22T04:13:27.128Z,100355.66
2024-01-22T04:15:59.985Z,100346.06
2024-01-22T04:18:27.348Z,100350.28
2024-01-22T04:20:54.600Z,100343.06
2024-01-22T04:23:21.733Z,100340.41
2024-01-22T04:25:49.044Z,100328.25
2024-01-22T04:28:18.387Z,100322.09
2024-01-22T04:30:47.053Z,100329.81
2024-01-22T04:33:14.933Z,100318.50
2024-01-22T04:35:42.500Z,100329.63
2024-01-22T04:38:10.307Z,100329.63
2024-01-22T04:40:37.489Z,100343.28
2024-01-22T04:43:04.923Z,100332.66
2024-01-22T04:45:32.188Z,100350.69
2024-01-22T04:48:00.410Z,100340.25
2024-01-22T04:50:30.787Z,100329.81
2024-01-22T04:52:57.939Z,100317.72
2024-01-22T04:55:27.197Z,100317.63
2024-01-22T04:57:56.727Z,100317.56
2024-01-22T05:00:24.214Z,100313.94
2024-01-22T05:02:53.349Z,100312.16
2024-01-22T05:05:21.536Z,100293.25
2024-01-22T05:07:48.645Z,100288.97
2024-01-22T05:10:15.952Z,100276.88
2024-01-22T05:12:43.121Z,100276.72
2024-01-22T05:15:13.420Z,100308.56
2024-01-22T05:17:41.469Z,100278.13
2024-01-22T05:20:09.625Z,100287.47
2024-01-22T05:22:37.163Z,100298.66
2024-01-22T05:25:04.972Z,100282.88
2024-01-22T05:27:32.142Z,100287.84
2024-01-22T05:29:59.378Z,100292.94
2024-01-22T05:32:26.611Z,100288.22
2024-01-22T05:34:53.943Z,100321.72
2024-01-22T05:37:21.185Z,100290.50
2024-01-22T05:39:51.042Z,100321.56
2024-01-22T05:42:18.433Z,100313.78
2024-01-22T05:44:45.751Z,100311.34
2024-01-22T05:47:13.424Z,100337.31
2024-01-22T05:49:43.719Z,100332.94
2024-01-22T05:52:10.918Z,100320.97
2024-01-22T05:54:38.091Z,100340.00
2024-01-22T05:57:05.662Z,100325.47
2024-01-22T05:59:32.768Z,100343.63
2024-01-22T06:01:59.863Z,100325.59
2024-01-22T06:04:27.549Z,100330.72
2024-01-22T06:06:54.967Z,100332.25
2024-01-22T06:09:22.170Z,100339.16
2024-01-22T06:11:49.674Z,100354.53
2024-01-22T06:14:17.668Z,100338.13
2024-01-22T06:16:48.150Z,100354.53
2024-01-22T06:19:15.471Z,100348.44
2024-01-22T06:21:42.874Z,100334.78
2024-01-22T06:24:13.144Z,100345.31
2024-01-22T06:26:43.407Z,100343.59
2024-01-22T06:29:15.387Z,100360.09
2024-01-22T06:31:44.680Z,100350.59
2024-01-22T06:34:13.250Z,100354.09
2024-01-22T06:36:40.635Z,100379.31
2024-01-22T06:39:09.713Z,100362.06
2024-01-22T06:41:37.301Z,100358.81
2024-01-22T06:44:05.148Z,100366.59
2024-01-22T06:46:32.549Z,100371.78
2024-01-22T06:49:01.844Z,100357.03
2024-01-22T06:51:38.059Z,100361.28
2024-01-22T06:54:13.061Z,100363.84
2024-01-22T06:56:40.444Z,100359.53
2024-01-22T06:59:07.592Z,100357.84
2024-01-22T07:01:37.560Z,100357.88
2024-01-22T07:04:05.277Z,100355.25
2024-01-22T07:06:32.474Z,100356.94
2024-01-22T07:08:59.709Z,100361.25
2024-01-22T07:11:26.914Z,100360.34
2024-01-22T07:13:54.324Z,100361.19
2024-01-22T07:16:21.612Z,100366.38
2024-01-22T07:18:49.055Z,100376.66
2024-01-22T07:21:16.338Z,100374.94
2024-01-22T07:23:43.593Z,100374.97
2024-01-22T07:26:10.848Z,100374.25
2024-01-22T07:28:38.069Z,100378.63
2024-01-22T07:31:05.426Z,100391.59
2024-01-22T07:33:32.779Z,100380.25
2024-01-22T07:35:59.982Z,100380.25
2024-01-22T07:38:27.217Z,100381.94
2024-01-22T07:40:56.404Z,100379.28
2024-01-22T07:43:24.057Z,100386.25
2024-01-22T07:45:51.262Z,100397.47
2024-01-22T07:48:18.771Z,100402.66
2024-01-22T07:50:46.192Z,100397.47
2024-01-22T07:53:13.341Z,100391.31
2024-01-22T07:55:40.482Z,100391.25
2024-01-22T07:58:07.932Z,100385.31
2024-01-22T08:00:35.644Z,100393.13
2024-01-22T08:03:03.514Z,100391.38
2024-01-22T08:05:30.802Z,100387.97
2024-01-22T08:07:58.044Z,100385.31
2024-01-22T08:10:25.227Z,100381.00
2024-01-22T08:12:52.318Z,100386.13
2024-01-22T08:15:19.761Z,100386.94
2024-01-22T08:17:50.132Z,100387.91
2024-01-22T08:20:19.857Z,100399.19
2024-01-22T08:22:48.280Z,100415.66
2024-01-22T08:25:20.826Z,100416.47
2024-01-22T08:27:48.235Z,100401.81
2024-01-22T08:30:15.540Z,100414.78
2024-01-22T08:32:42.865Z,100417.41
2024-01-22T08:35:11.662Z,100423.50
2024-01-22T08:37:40.825Z,100412.28
2024-01-22T08:40:09.955Z,100428.69
2024-01-22T08:42:37.111Z,100426.13
2024-01-22T08:45:06.333Z,100412.34
2024-01-22T08:47:33.537Z,100438.34
2024-01-22T08:50:02.961Z,100441.84
2024-01-22T08:52:30.173Z,100444.53
2024-01-22T08:54:57.325Z,100446.41
2024-01-22T08:57:24.487Z,100446.53
2024-01-22T08:59:51.703Z,100456.31
2024-01-22T09:02:18.849Z,100463.47
2024-01-22T09:04:46.041Z,100462.66
2024-01-22T09:07:13.262Z,100474.06
2024-01-22T09:09:40.578Z,100487.16
2024-01-22T09:12:08.118Z,100482.91
2024-01-22T09:14:35.275Z,100477.88
2024-01-22T09:17:02.395Z,100483.19
2024-01-22T09:19:29.743Z,100490.22
2024-01-22T09:21:58.478Z,100487.75
2024-01-22T09:24:25.723Z,100484.44
2024-01-22T09:26:52.875Z,100488.94
2024-01-22T09:29:20.094Z,100499.41
2024-01-22T09:31:47.803Z,100501.25
2024-01-22T09:34:15.340Z,100509.09
2024-01-22T09:36:43.165Z,100503.13
2024-01-22T09:39:10.686Z,100493.69
2024-01-22T09:41:39.053Z,100518.78
2024-01-22T09:44:08.276Z,100530.13
2024-01-22T09:46:36.792Z,100541.38
2024-01-22T09:49:05.026Z,100551.81
2024-01-22T09:51:35.923Z,100564.00
2024-01-22T09:54:09.147Z,100567.50
2024-01-22T09:56:38.121Z,100575.31
2024-01-22T09:59:26.910Z,100557.25
2024-01-22T10:01:55.065Z,100565.94
2024-01-22T10:04:25.215Z,100574.56
2024-01-22T10:06:52.567Z,100562.44
2024-01-22T10:09:19.991Z,100566.75
2024-01-22T10:11:48.125Z,100567.63
2024-01-22T10:14:15.548Z,100570.22
2024-01-22T10:16:42.756Z,100578.88
2024-01-22T10:19:10.924Z,100584.06
2024-01-22T10:21:42.885Z,100586.66
2024-01-22T10:24:10.901Z,100593.59
2024-01-22T10:26:38.494Z,100603.06
2024-01-22T10:29:21.084Z,100605.69
2024-01-22T10:31:59.361Z,100622.16
2024-01-22T10:34:32.247Z,100635.13
2024-01-22T10:37:10.535Z,100636.88
2024-01-22T10:39:39.980Z,100643.81
2024-01-22T10:42:10.628Z,100642.97
2024-01-22T10:44:39.086Z,100639.56
2024-01-22T10:47:10.925Z,100653.34
2024-01-22T10:49:38.565Z,100658.47
2024-01-22T10:52:06.455Z,100650.72
2024-01-22T10:54:36.336Z,100665.38
2024-01-22T10:57:05.428Z,100672.31
2024-01-22T10:59:40.497Z,100668.00
2024-01-22T11:02:10.618Z,100670.59
2024-01-22T11:04:46.909Z,100672.28
2024-01-22T11:07:14.424Z,100671.44
2024-01-22T11:09:42.011Z,100674.03
2024-01-22T11:12:11.269Z,100675.84
2024-01-22T11:14:40.185Z,100672.38
2024-01-22T11:17:10.470Z,100677.53
2024-01-22T11:19:38.686Z,100682.72
2024-01-22T11:22:14.107Z,100682.72
2024-01-22T11:24:41.279Z,100688.75
2024-01-22T11:27:08.519Z,100680.97
2024-01-22T11:29:36.508Z,100694.81
2024-01-22T11:32:30.089Z,100693.00
2024-01-22T11:35:05.784Z,100690.34
2024-01-22T11:37:39.526Z,100692.91
2024-01-22T11:40:08.496Z,100690.34
2024-01-22T11:42:36.392Z,100698.97
2024-01-22T11:45:13.355Z,100699.78
2024-01-22T11:47:41.394Z,100705.84
2024-01-22T11:50:09.724Z,100701.50
2024-01-22T11:52:39.053Z,100724.78
2024-01-22T11:55:08.639Z,100719.53
2024-01-22T11:57:39.005Z,100728.16
2024-01-22T12:00:21.457Z,100731.56
2024-01-22T12:02:51.868Z,100734.13
2024-01-22T12:05:20.668Z,100725.50
2024-01-22T12:07:51.004Z,100741.97
2024-01-22T12:10:19.736Z,100734.22
2024-01-22T12:13:19.736Z,100734.25
2024-01-22T12:15:47.240Z,100743.75
2024-01-22T12:18:14.654Z,100746.34
2024-01-22T12:20:41.938Z,100748.03
2024-01-22T12:23:10.853Z,100746.34
2024-01-22T12:25:40.148Z,100760.19
2024-01-22T12:28:09.432Z,100763.69
2024-01-22T12:30:36.831Z,100776.66
2024-01-22T12:33:04.936Z,100757.63
2024-01-22T12:35:32.470Z,100769.75
2024-01-22T12:37:59.738Z,100770.50
2024-01-22T12:40:28.270Z,100781.63
2024-01-22T12:43:00.409Z,100778.16
2024-01-22T12:45:28.396Z,100762.66
2024-01-22T12:47:56.028Z,100784.28
2024-01-22T12:50:23.489Z,100786.88
2024-01-22T12:52:52.053Z,100795.53
2024-01-22T12:55:19.630Z,100799.78
2024-01-22T12:57:47.806Z,100804.09
2024-01-22T13:00:16.832Z,100802.31
2024-01-22T13:02:45.182Z,100797.16
2024-01-22T13:05:12.936Z,100815.25
2024-01-22T13:07:40.189Z,100804.00
2024-01-22T13:10:07.681Z,100804.03
2024-01-22T13:12:34.961Z,100801.50
2024-01-22T13:15:02.673Z,100810.16
2024-01-22T13:17:31.187Z,100821.44
2024-01-22T13:20:00.389Z,100822.31
2024-01-22T13:22:27.787Z,100813.72
2024-01-22T13:24:55.427Z,100821.50
2024-01-22T13:27:23.780Z,100805.97
2024-01-22T13:29:51.894Z,100812.09
2024-01-22T13:32:21.166Z,100825.06
2024-01-22T13:34:48.921Z,100826.75
2024-01-22T13:37:16.482Z,100826.81
2024-01-22T13:39:46.776Z,100831.94
2024-01-22T13:42:17.227Z,100830.22
2024-01-22T13:44:44.573Z,100827.66
2024-01-22T13:47:17.720Z,100832.00
2024-01-22T13:49:53.167Z,100833.72
2024-01-22T13:52:31.396Z,100835.41
2024-01-22T13:55:00.781Z,100834.50
2024-01-22T13:57:28.039Z,100841.38
2024-01-22T13:59:55.253Z,100836.16
2024-01-22T14:02:22.527Z,100835.28
2024-01-22T14:04:49.892Z,100843.81
2024-01-22T14:07:17.213Z,100831.66
2024-01-22T14:09:45.059Z,100836.91
2024-01-22T14:12:12.262Z,100844.69
2024-01-22T14:14:39.556Z,100849.88
2024-01-22T14:17:07.603Z,100849.06
2024-01-22T14:19:34.812Z,100852.69
2024-01-22T14:22:02.311Z,100851.84
2024-01-22T14:24:30.519Z,100849.25
2024-01-22T14:26:58.569Z,100861.41
2024-01-22T14:29:28.453Z,100852.81
2024-01-22T14:31:55.791Z,100861.41
2024-01-22T14:34:23.390Z,100859.75
2024-01-22T14:36:50.630Z,100862.38
2024-01-22T14:39:19.830Z,100872.75
2024-01-22T14:41:47.287Z,100874.50
2024-01-22T14:44:14.585Z,100880.50
2024-01-22T14:46:42.871Z,100888.22
2024-01-22T14:49:16.979Z,100889.91
2024-01-22T14:51:46.680Z,100893.38
2024-01-22T14:54:14.340Z,100888.22
2024-01-22T14:56:47.399Z,100893.38
2024-01-22T14:59:14.882Z,100897.78
2024-01-22T15:01:42.214Z,100899.59
2024-01-22T15:04:10.880Z,100900.53
2024-01-22T15:06:42.955Z,100906.63
2024-01-22T15:09:11.026Z,100908.41
2024-01-22T15:11:41.103Z,100907.53
2024-01-22T15:14:10.805Z,100910.25
2024-01-22T15:16:37.920Z,100914.66
2024-01-22T15:19:05.325Z,100930.13
2024-01-22T15:21:32.941Z,100933.66
2024-01-22T15:24:00.424Z,100933.78
2024-01-22T15:26:27.808Z,100939.00
2024-01-22T15:28:56.908Z,100940.78
2024-01-22T15:31:24.604Z,100944.22
2024-01-22T15:33:52.675Z,100926.16
2024-01-22T15:36:20.916Z,100944.31
2024-01-22T15:38:48.777Z,100956.41
2024-01-22T15:41:18.966Z,100954.69
2024-01-22T15:43:48.570Z,100956.47
2024-01-22T15:46:16.258Z,100966.03
2024-01-22T15:48:44.930Z,100972.06
2024-01-22T15:51:13.558Z,100984.19
2024-01-22T15:53:40.762Z,100987.72
2024-01-22T15:56:08.234Z,100989.47
2024-01-22T15:58:35.586Z,100986.94
2024-01-22T16:01:02.847Z,100983.47
2024-01-22T16:03:30.207Z,100987.69
2024-01-22T16:05:58.988Z,100986.75
2024-01-22T16:08:26.463Z,100992.81
2024-01-22T16:10:54.022Z,100990.19
2024-01-22T16:13:21.267Z,100993.69
2024-01-22T16:15:48.435Z,101000.63
2024-01-22T16:18:15.800Z,101004.06
2024-01-22T16:20:43.029Z,101016.16
2024-01-22T16:23:11.193Z,101017.88
2024-01-22T16:25:38.460Z,101023.94
2024-01-22T16:28:07.900Z,101036.03
2024-01-22T16:30:42.136Z,101045.53
2024-01-22T16:33:11.834Z,101053.31
2024-01-22T16:35:39.459Z,101053.31
2024-01-22T16:38:06.674Z,101055.91
2024-01-22T16:40:33.873Z,101054.19
2024-01-22T16:43:01.482Z,101061.97
2024-01-22T16:45:28.705Z,101061.13
2024-01-22T16:47:55.977Z,101077.53
2024-01-22T16:50:23.157Z,101077.53
2024-01-22T16:52:55.392Z,101072.38
2024-01-22T16:55:23.142Z,101081.88
2024-01-22T16:57:50.473Z,101082.78
2024-01-22T17:00:18.194Z,101092.25
2024-01-22T17:02:45.412Z,101094.84
2024-01-22T17:05:12.779Z,101101.78
2024-01-22T17:07:40.406Z,101093.19
2024-01-22T17:10:09.265Z,101104.38
2024-01-22T17:12:36.583Z,101109.56
2024-01-22T17:15:05.436Z,101108.69
2024-01-22T17:17:32.795Z,101110.41
2024-01-22T17:20:00.231Z,101109.53
2024-01-22T17:22:28.875Z,101110.41
2024-01-22T17:24:56.062Z,101117.34
2024-01-22T17:27:23.413Z,101114.75
2024-01-22T17:29:50.798Z,101119.91
2024-01-22T17:32:18.345Z,101127.69
2024-01-22T17:34:45.980Z,101126.81
2024-01-22T17:37:13.760Z,101123.34
2024-01-22T17:39:41.079Z,101134.53
2024-01-22T17:42:08.546Z,101136.25
2024-01-22T17:44:36.976Z,101139.69
2024-01-22T17:47:04.331Z,101131.94
2024-01-22T17:49:31.581Z,101130.22
2024-01-22T17:51:59.057Z,101145.78
2024-01-22T17:54:26.231Z,101140.63
2024-01-22T17:56:53.489Z,101147.56
2024-01-22T17:59:20.632Z,101161.34
2024-01-22T18:01:48.189Z,101163.06
2024-01-22T18:04:15.396Z,101167.41
2024-01-22T18:06:44.077Z,101170.03
2024-01-22T18:09:13.100Z,101181.25
2024-01-22T18:11:45.683Z,101178.69
2024-01-22T18:14:13.995Z,101186.47
2024-01-22T18:16:41.154Z,101176.13
2024-01-22T18:19:08.610Z,101177.88
2024-01-22T18:21:38.858Z,101188.25
2024-01-22T18:24:07.777Z,101189.09
2024-01-22T18:26:34.948Z,101197.72
2024-01-22T18:29:02.417Z,101204.63
2024-01-22T18:31:29.853Z,101199.47
2024-01-22T18:33:58.275Z,101204.66
2024-01-22T18:36:25.912Z,101202.97
2024-01-22T18:38:53.315Z,101210.75
2024-01-22T18:41:22.336Z,101224.56
2024-01-22T18:43:49.815Z,101228.00
2024-01-22T18:46:23.222Z,101237.53
2024-01-22T18:48:51.678Z,101235.78
2024-01-22T18:51:19.171Z,101239.25
2024-01-22T18:53:46.394Z,101246.13
2024-01-22T18:56:15.039Z,101253.91
2024-01-22T18:58:42.175Z,101257.34
2024-01-22T19:01:09.492Z,101259.06
2024-01-22T19:03:37.742Z,101262.53
2024-01-22T19:06:07.287Z,101265.13
2024-01-22T19:08:34.608Z,101268.59
2024-01-22T19:11:01.947Z,101270.31
2024-01-22T19:13:29.126Z,101280.66
2024-01-22T19:15:56.838Z,101283.25
2024-01-22T19:18:24.165Z,101291.03
2024-01-22T19:20:51.297Z,101288.47
2024-01-22T19:23:18.461Z,101293.59
2024-01-22T19:25:45.871Z,101279.00
2024-01-22T19:28:14.936Z,101287.59
2024-01-22T19:30:42.152Z,101287.59
2024-01-22T19:33:09.595Z,101297.09
2024-01-22T19:35:36.927Z,101294.53
2024-01-22T19:38:04.233Z,101299.72
2024-01-22T19:40:33.162Z,101289.38
2024-01-22T19:43:01.127Z,101303.16
2024-01-22T19:45:28.420Z,101313.47
2024-01-22T19:48:00.268Z,101314.34
2024-01-22T19:50:27.703Z,101326.41
2024-01-22T19:52:55.148Z,101327.25
2024-01-22T19:55:22.439Z,101341.03
2024-01-22T19:57:49.783Z,101341.91
2024-01-22T20:00:17.431Z,101341.91
2024-01-22T20:02:47.319Z,101345.38
2024-01-22T20:05:14.625Z,101341.06
2024-01-22T20:07:41.886Z,101341.94
2024-01-22T20:10:09.563Z,101333.31
2024-01-22T20:12:37.992Z,101331.59
2024-01-22T20:15:05.592Z,101331.59
2024-01-22T20:17:32.885Z,101341.94
2024-01-22T20:20:01.326Z,101336.78
2024-01-22T20:22:28.584Z,101341.09
2024-01-22T20:24:56.321Z,101343.69
2024-01-22T20:27:23.598Z,101337.66
2024-01-22T20:29:51.539Z,101350.56
2024-01-22T20:32:18.916Z,101355.72
2024-01-22T20:34:47.962Z,101350.56
2024-01-22T20:37:15.347Z,101352.25
2024-01-22T20:39:42.659Z,101354.84
2024-01-22T20:42:10.204Z,101348.84
2024-01-22T20:44:37.346Z,101360.88
2024-01-22T20:47:04.714Z,101363.47
2024-01-22T20:49:32.159Z,101371.22
2024-01-22T20:51:59.408Z,101372.94
2024-01-22T20:54:26.943Z,101378.09
2024-01-22T20:56:54.456Z,101384.13
2024-01-22T20:59:21.748Z,101381.56
2024-01-22T21:01:49.161Z,101379.81
2024-01-22T21:04:16.489Z,101389.28
2024-01-22T21:06:44.130Z,101369.50
2024-01-22T21:09:16.463Z,101382.41
2024-01-22T21:11:44.984Z,101376.38
2024-01-22T21:14:12.478Z,101378.94
2024-01-22T21:16:39.723Z,101385.84
2024-01-22T21:19:07.415Z,101384.09
2024-01-22T21:21:35.081Z,101388.44
2024-01-22T21:24:02.471Z,101391.88
2024-01-22T21:26:29.699Z,101385.84
2024-01-22T21:28:56.957Z,101382.41
2024-01-22T21:31:24.027Z,101387.56
2024-01-22T21:33:52.406Z,101397.06
2024-01-22T21:36:19.633Z,101396.22
2024-01-22T21:38:46.790Z,101391.91
2024-01-22T21:41:16.961Z,101390.19
2024-01-22T21:43:44.076Z,101385.03
2024-01-22T21:46:11.370Z,101387.59
2024-01-22T21:48:38.691Z,101387.59
2024-01-22T21:51:06.463Z,101396.22
2024-01-22T21:53:33.591Z,101397.94
2024-01-22T21:56:00.971Z,101403.09
2024-01-22T21:58:28.659Z,101416.91
2024-01-22T22:00:56.051Z,101400.53
2024-01-22T22:03:27.128Z,101400.50
2024-01-22T22:05:54.634Z,101405.69
2024-01-22T22:08:21.851Z,101420.34
2024-01-22T22:10:51.532Z,101445.28
2024-01-22T22:13:18.751Z,101443.59
2024-01-22T22:15:49.377Z,101447.00
2024-01-22T22:18:16.767Z,101462.53
2024-01-22T22:20:44.155Z,101455.63
2024-01-22T22:23:11.494Z,101467.69
2024-01-22T22:25:39.481Z,101465.09
2024-01-22T22:28:07.030Z,101452.19
2024-01-22T22:30:34.905Z,101453.06
2024-01-22T22:33:02.412Z,101469.41
2024-01-22T22:35:29.867Z,101459.06
2024-01-22T22:37:57.062Z,101471.97
2024-01-22T22:40:24.241Z,101472.00
2024-01-22T22:42:51.923Z,101483.19
2024-01-22T22:45:19.297Z,101491.81
2024-01-22T22:47:46.420Z,101489.22
2024-01-22T22:50:13.581Z,101500.41
2024-01-22T22:52:40.874Z,101495.25
2024-01-22T22:55:08.373Z,101503.84
2024-01-22T22:57:35.932Z,101490.94
2024-01-22T23:00:05.379Z,101499.56
2024-01-22T23:02:33.123Z,101517.66
2024-01-22T23:05:00.433Z,101515.91
2024-01-22T23:07:27.658Z,101510.75
2024-01-22T23:09:54.820Z,101515.06
2024-01-22T23:12:22.099Z,101528.84
2024-01-22T23:14:49.398Z,101530.56
2024-01-22T23:17:16.785Z,101542.63
2024-01-22T23:19:45.933Z,101545.19
2024-01-22T23:22:13.179Z,101543.47
2024-01-22T23:24:40.868Z,101558.97
2024-01-22T23:27:11.084Z,101563.25
2024-01-22T23:29:38.399Z,101565.00
2024-01-22T23:32:05.885Z,101557.22
2024-01-22T23:34:33.127Z,101561.56
2024-01-22T23:37:00.349Z,101564.13
2024-01-22T23:39:27.657Z,101568.44
2024-01-22T23:41:54.760Z,101574.44
2024-01-22T23:44:21.984Z,101587.34
2024-01-22T23:46:49.222Z,101579.63
2024-01-22T23:49:16.573Z,101584.81
2024-01-22T23:51:43.802Z,101586.50
2024-01-22T23:54:11.204Z,101593.38
2024-01-22T23:56:39.187Z,101587.34
2024-01-22T23:59:06.451Z,101598.56
